createdAt,value
2022-12-16T00:01:27.882Z,97.60
2022-12-16T00:03:55.671Z,97.36
2022-12-16T00:06:24.508Z,97.09
2022-12-16T00:08:51.975Z,95.31
2022-12-16T00:11:20.148Z,98.88
2022-12-16T00:13:47.407Z,98.48
2022-12-16T00:16:15.527Z,99.49
2022-12-16T00:18:42.738Z,99.28
2022-12-16T00:21:09.528Z,98.36
2022-12-16T00:23:36.705Z,96.43
2022-12-16T00:26:03.660Z,95.50
2022-12-16T00:28:30.437Z,95.65
2022-12-16T00:30:57.612Z,97.49
2022-12-16T00:33:28.214Z,100.00
2022-12-16T00:35:55.333Z,98.19
2022-12-16T00:38:23.287Z,96.96
2022-12-16T00:40:50.085Z,98.75
2022-12-16T00:43:19.901Z,99.53
2022-12-16T00:45:46.899Z,98.50
2022-12-16T00:48:14.663Z,99.83
2022-12-16T00:50:41.407Z,100.00
2022-12-16T00:53:08.348Z,98.11
2022-12-16T00:55:35.486Z,97.52
2022-12-16T00:58:02.180Z,95.93
2022-12-16T01:00:28.950Z,96.99
2022-12-16T01:02:55.827Z,96.13
2022-12-16T01:05:26.956Z,94.51
2022-12-16T01:07:54.751Z,97.82
2022-12-16T01:10:22.129Z,96.64
2022-12-16T01:12:48.832Z,97.56
2022-12-16T01:15:15.762Z,98.60
2022-12-16T01:17:42.595Z,97.44
2022-12-16T01:20:09.616Z,96.37
2022-12-16T01:22:36.278Z,97.52
2022-12-16T01:25:03.753Z,97.10
2022-12-16T01:27:30.612Z,100.00
2022-12-16T01:29:57.382Z,100.00
2022-12-16T01:32:24.096Z,99.96
2022-12-16T01:34:55.349Z,98.98
2022-12-16T01:37:23.045Z,100.00
2022-12-16T01:39:49.917Z,100.00
2022-12-16T01:42:19.392Z,100.00
2022-12-16T01:44:47.114Z,100.00
2022-12-16T01:47:15.928Z,100.00
2022-12-16T01:50:06.330Z,100.00
2022-12-16T01:52:40.390Z,100.00
2022-12-16T01:55:09.699Z,100.00
2022-12-16T01:57:48.592Z,100.00
2022-12-16T02:00:15.444Z,100.00
2022-12-16T02:02:46.561Z,100.00
2022-12-16T02:05:22.824Z,100.00
2022-12-16T02:08:03.171Z,100.00
2022-12-16T02:10:45.062Z,100.00
2022-12-16T02:13:30.396Z,100.00
2022-12-16T02:15:57.324Z,100.00
2022-12-16T02:18:45.498Z,100.00
2022-12-16T02:21:18.049Z,100.00
2022-12-16T02:24:03.945Z,100.00
2022-12-16T02:26:49.201Z,100.00
2022-12-16T02:29:30.229Z,100.00
2022-12-16T02:31:56.879Z,100.00
2022-12-16T02:34:29.867Z,100.00
2022-12-16T02:37:05.974Z,100.00
2022-12-16T02:39:38.148Z,100.00
2022-12-16T02:42:13.670Z,98.15
2022-12-16T02:44:44.082Z,99.43
2022-12-16T02:47:10.828Z,97.54
2022-12-16T02:49:48.587Z,97.55
2022-12-16T02:52:16.159Z,97.82
2022-12-16T02:54:43.390Z,99.88
2022-12-16T02:57:13.786Z,96.94
2022-12-16T02:59:59.443Z,96.27
2022-12-16T03:02:31.056Z,96.48
2022-12-16T03:05:10.198Z,95.29
2022-12-16T03:07:40.096Z,93.94
2022-12-16T03:10:07.984Z,93.30
2022-12-16T03:12:35.772Z,92.19
2022-12-16T03:15:02.902Z,90.66
2022-12-16T03:17:29.679Z,91.47
2022-12-16T03:20:08.921Z,90.80
2022-12-16T03:22:36.835Z,89.00
2022-12-16T03:25:04.115Z,90.72
2022-12-16T03:27:43.924Z,90.21
2022-12-16T03:30:14.169Z,90.03
2022-12-16T03:32:49.084Z,92.73
2022-12-16T03:35:44.971Z,90.34
2022-12-16T03:38:13.033Z,91.75
2022-12-16T03:40:41.620Z,96.91
2022-12-16T03:43:09.152Z,93.32
2022-12-16T03:45:40.228Z,90.65
2022-12-16T03:48:08.547Z,88.67
2022-12-16T03:50:35.906Z,87.40
2022-12-16T03:53:03.069Z,86.73
2022-12-16T03:55:29.805Z,85.71
2022-12-16T03:57:57.431Z,83.90
2022-12-16T04:00:24.755Z,86.39
2022-12-16T04:02:51.736Z,85.44
2022-12-16T04:05:20.538Z,91.55
2022-12-16T04:07:47.285Z,90.91
2022-12-16T04:10:13.984Z,92.70
2022-12-16T04:12:59.345Z,92.04
2022-12-16T04:15:44.624Z,92.77
2022-12-16T04:18:33.264Z,91.27
2022-12-16T04:21:18.865Z,90.59
2022-12-16T04:24:08.741Z,88.84
2022-12-16T04:26:55.446Z,89.21
2022-12-16T04:29:22.204Z,88.04
2022-12-16T04:31:49.264Z,86.77
2022-12-16T04:34:29.425Z,85.88
2022-12-16T04:37:23.430Z,85.35
2022-12-16T04:40:08.430Z,88.55
2022-12-16T04:42:53.549Z,88.57
2022-12-16T04:45:38.924Z,89.99
2022-12-16T04:48:24.383Z,88.98
2022-12-16T04:51:09.907Z,87.67
2022-12-16T04:53:54.891Z,90.39
2022-12-16T04:56:40.089Z,88.18
2022-12-16T04:59:25.105Z,85.72
2022-12-16T05:02:10.358Z,87.99
2022-12-16T05:04:55.505Z,88.79
2022-12-16T05:07:40.593Z,88.27
2022-12-16T05:10:26.305Z,87.67
2022-12-16T05:13:12.324Z,86.11
2022-12-16T05:15:58.482Z,86.69
2022-12-16T05:18:44.340Z,87.00
2022-12-16T05:21:29.389Z,87.32
2022-12-16T05:24:15.621Z,90.55
2022-12-16T05:27:00.922Z,91.80
2022-12-16T05:29:46.045Z,95.34
2022-12-16T05:32:30.995Z,91.70
2022-12-16T05:35:16.193Z,91.66
2022-12-16T05:38:18.088Z,87.88
2022-12-16T05:41:03.381Z,90.05
2022-12-16T05:43:48.497Z,89.50
2022-12-16T05:46:33.733Z,89.24
2022-12-16T05:49:18.919Z,90.95
2022-12-16T05:52:04.112Z,89.21
2022-12-16T05:54:49.249Z,88.52
2022-12-16T05:57:34.504Z,87.38
2022-12-16T06:00:19.543Z,88.31
2022-12-16T06:03:04.846Z,87.53
2022-12-16T06:05:49.965Z,89.72
2022-12-16T06:08:35.099Z,87.37
2022-12-16T06:11:20.304Z,87.25
2022-12-16T06:14:05.439Z,86.15
2022-12-16T06:16:50.386Z,86.69
2022-12-16T06:19:35.585Z,85.92
2022-12-16T06:22:20.740Z,85.71
2022-12-16T06:25:05.829Z,86.62
2022-12-16T06:27:50.920Z,86.30
2022-12-16T06:30:36.102Z,86.46
2022-12-16T06:33:21.184Z,93.71
2022-12-16T06:36:06.341Z,91.02
2022-12-16T06:38:51.514Z,89.78
2022-12-16T06:41:36.658Z,91.61
2022-12-16T06:44:22.196Z,90.16
2022-12-16T06:47:07.306Z,92.99
2022-12-16T06:49:52.525Z,95.83
2022-12-16T06:52:37.699Z,96.30
2022-12-16T06:55:23.401Z,94.82
2022-12-16T06:58:14.640Z,97.36
2022-12-16T07:00:59.830Z,94.45
2022-12-16T07:03:45.146Z,95.21
2022-12-16T07:06:30.341Z,94.22
2022-12-16T07:09:15.569Z,96.52
2022-12-16T07:12:00.573Z,98.58
2022-12-16T07:14:48.169Z,100.00
2022-12-16T07:17:33.706Z,98.95
2022-12-16T07:20:18.988Z,100.00
2022-12-16T07:23:12.099Z,100.00
2022-12-16T07:26:01.718Z,100.00
2022-12-16T07:28:48.423Z,100.00
2022-12-16T07:31:33.988Z,100.00
2022-12-16T07:34:19.582Z,100.00
2022-12-16T07:37:05.325Z,100.00
2022-12-16T07:39:54.878Z,100.00
2022-12-16T07:42:40.651Z,98.70
2022-12-16T07:45:26.210Z,98.14
2022-12-16T07:48:11.630Z,97.58
2022-12-16T07:50:56.742Z,100.00
2022-12-16T07:53:41.995Z,100.00
2022-12-16T07:56:28.272Z,99.73
2022-12-16T07:59:14.515Z,96.49
2022-12-16T08:02:04.312Z,95.28
2022-12-16T08:04:50.603Z,96.68
2022-12-16T08:07:36.636Z,93.60
2022-12-16T08:10:22.792Z,93.45
2022-12-16T08:13:08.294Z,96.70
2022-12-16T08:15:54.381Z,92.57
2022-12-16T08:18:39.506Z,91.27
2022-12-16T08:21:24.559Z,92.77
2022-12-16T08:24:10.197Z,93.94
2022-12-16T08:27:06.068Z,92.00
2022-12-16T08:29:54.414Z,92.40
2022-12-16T08:32:42.840Z,92.11
2022-12-16T08:35:28.462Z,91.07
2022-12-16T08:38:15.113Z,90.91
2022-12-16T08:41:03.261Z,90.77
2022-12-16T08:43:52.820Z,89.63
2022-12-16T08:46:38.612Z,89.26
2022-12-16T08:49:24.853Z,88.61
2022-12-16T08:52:10.409Z,86.65
2022-12-16T08:54:57.722Z,87.01
2022-12-16T08:57:42.909Z,86.68
2022-12-16T09:00:28.530Z,86.44
2022-12-16T09:03:14.920Z,85.84
2022-12-16T09:06:02.617Z,85.40
2022-12-16T09:08:48.322Z,84.96
2022-12-16T09:11:34.180Z,84.78
2022-12-16T09:14:20.357Z,84.12
2022-12-16T09:17:07.000Z,84.28
2022-12-16T09:20:09.170Z,83.94
2022-12-16T09:22:55.586Z,83.90
2022-12-16T09:25:41.024Z,83.21
2022-12-16T09:28:26.644Z,83.22
2022-12-16T09:31:11.934Z,83.79
2022-12-16T09:33:59.252Z,82.25
2022-12-16T09:36:46.540Z,81.51
2022-12-16T09:39:33.777Z,80.91
2022-12-16T09:42:38.767Z,80.66
2022-12-16T09:45:43.314Z,80.42
2022-12-16T09:48:42.076Z,81.08
2022-12-16T09:51:30.260Z,80.96
2022-12-16T09:54:16.494Z,81.47
2022-12-16T09:57:03.803Z,81.05
2022-12-16T10:00:01.105Z,80.43
2022-12-16T10:02:50.120Z,79.65
2022-12-16T10:05:39.545Z,80.68
2022-12-16T10:08:44.931Z,81.51
2022-12-16T10:11:36.698Z,80.17
2022-12-16T10:14:46.830Z,79.95
2022-12-16T10:17:36.390Z,82.26
2022-12-16T10:20:46.620Z,82.87
2022-12-16T10:23:32.323Z,81.40
2022-12-16T10:26:29.448Z,84.26
2022-12-16T10:29:23.189Z,85.18
2022-12-16T10:32:10.277Z,86.55
2022-12-16T10:34:56.454Z,85.07
2022-12-16T10:37:52.767Z,88.98
2022-12-16T10:40:40.488Z,89.42
2022-12-16T10:43:46.060Z,87.37
2022-12-16T10:46:37.237Z,86.30
2022-12-16T10:49:22.707Z,87.81
2022-12-16T10:52:09.233Z,86.03
2022-12-16T10:54:59.293Z,88.46
2022-12-16T10:58:01.719Z,88.17
2022-12-16T11:01:06.827Z,88.00
2022-12-16T11:03:54.467Z,86.21
2022-12-16T11:06:56.822Z,90.46
2022-12-16T11:09:46.144Z,96.53
2022-12-16T11:12:41.979Z,93.69
2022-12-16T11:15:49.464Z,90.13
2022-12-16T11:18:35.615Z,90.33
2022-12-16T11:21:31.421Z,89.24
2022-12-16T11:24:29.514Z,88.01
2022-12-16T11:27:16.295Z,87.60
2022-12-16T11:30:20.431Z,85.25
2022-12-16T11:33:07.616Z,85.89
2022-12-16T11:35:56.864Z,84.06
2022-12-16T11:38:47.156Z,83.13
2022-12-16T11:41:44.168Z,82.71
2022-12-16T11:44:34.927Z,82.05
2022-12-16T11:47:19.980Z,82.83
2022-12-16T11:50:07.083Z,81.31
2022-12-16T11:52:52.134Z,81.39
2022-12-16T11:59:15.562Z,82.47
2022-12-16T12:02:03.814Z,82.63
2022-12-16T12:04:52.699Z,83.94
2022-12-16T12:07:44.285Z,82.16
2022-12-16T12:10:31.865Z,83.83
2022-12-16T12:13:25.596Z,83.29
2022-12-16T12:16:19.858Z,81.30
2022-12-16T12:19:10.342Z,82.60
2022-12-16T12:22:05.750Z,82.91
2022-12-16T12:25:17.120Z,81.63
2022-12-16T12:28:09.762Z,84.79
2022-12-16T12:34:34.091Z,83.55
2022-12-16T12:37:42.057Z,87.26
2022-12-16T12:40:42.885Z,87.05
2022-12-16T12:43:42.443Z,90.23
2022-12-16T12:46:39.385Z,87.42
2022-12-16T12:49:35.214Z,86.20
2022-12-16T12:52:28.682Z,86.06
2022-12-16T12:55:23.251Z,87.17
2022-12-16T12:58:13.006Z,87.01
2022-12-16T13:01:05.343Z,85.22
2022-12-16T13:03:52.613Z,89.88
2022-12-16T13:06:38.733Z,87.05
2022-12-16T13:09:41.612Z,89.70
2022-12-16T13:12:26.988Z,86.73
2022-12-16T13:15:23.668Z,83.26
2022-12-16T13:18:18.165Z,86.21
2022-12-16T13:21:04.423Z,86.76
2022-12-16T13:23:51.649Z,84.45
2022-12-16T13:26:38.767Z,86.96
2022-12-16T13:29:24.407Z,85.42
2022-12-16T13:32:19.069Z,85.76
2022-12-16T13:35:04.114Z,86.03
2022-12-16T13:37:49.758Z,87.71
2022-12-16T13:40:39.467Z,83.75
2022-12-16T13:43:38.478Z,87.69
2022-12-16T13:46:24.168Z,87.61
2022-12-16T13:49:09.234Z,84.95
2022-12-16T13:51:57.416Z,86.46
2022-12-16T13:54:48.094Z,85.38
2022-12-16T13:57:38.281Z,85.54
2022-12-16T14:00:25.031Z,86.17
2022-12-16T14:03:11.236Z,88.88
2022-12-16T14:06:03.151Z,89.35
2022-12-16T14:08:52.797Z,88.31
2022-12-16T14:11:41.707Z,86.51
2022-12-16T14:14:27.166Z,88.47
2022-12-16T14:17:14.485Z,89.32
2022-12-16T14:20:05.585Z,86.56
2022-12-16T14:23:09.307Z,87.20
2022-12-16T14:25:54.829Z,85.75
2022-12-16T14:28:52.583Z,84.49
2022-12-16T14:31:52.752Z,85.15
2022-12-16T14:34:44.898Z,83.93
2022-12-16T14:37:38.817Z,84.29
2022-12-16T14:40:36.641Z,82.14
2022-12-16T14:43:22.505Z,82.58
2022-12-16T14:46:08.665Z,84.78
2022-12-16T14:48:56.620Z,86.26
2022-12-16T14:51:44.131Z,86.44
2022-12-16T14:54:46.737Z,85.70
2022-12-16T14:57:34.219Z,88.34
2022-12-16T15:00:20.744Z,87.42
2022-12-16T15:03:12.384Z,87.26
2022-12-16T15:05:59.205Z,89.13
2022-12-16T15:09:04.472Z,88.71
2022-12-16T15:11:49.738Z,87.96
2022-12-16T15:14:40.353Z,88.42
2022-12-16T15:17:30.117Z,87.08
2022-12-16T15:20:15.226Z,88.77
2022-12-16T15:23:10.656Z,88.67
2022-12-16T15:26:00.598Z,87.61
2022-12-16T15:29:04.267Z,86.29
2022-12-16T15:31:51.906Z,87.95
2022-12-16T15:34:48.427Z,86.84
2022-12-16T15:37:44.890Z,84.74
2022-12-16T15:40:46.916Z,83.88
2022-12-16T15:43:41.073Z,82.74
2022-12-16T15:46:34.784Z,82.08
2022-12-16T15:49:20.300Z,85.58
2022-12-16T15:52:06.739Z,86.45
2022-12-16T15:54:52.587Z,84.40
2022-12-16T15:57:48.509Z,87.49
2022-12-16T16:00:38.772Z,85.92
2022-12-16T16:03:26.627Z,85.02
2022-12-16T16:06:12.163Z,85.51
2022-12-16T16:08:57.381Z,86.49
2022-12-16T16:11:42.528Z,86.40
2022-12-16T16:14:27.688Z,85.98
2022-12-16T16:17:12.884Z,86.75
2022-12-16T16:20:03.194Z,86.65
2022-12-16T16:22:50.647Z,84.74
2022-12-16T16:25:35.763Z,87.02
2022-12-16T16:28:21.309Z,85.83
2022-12-16T16:31:06.540Z,86.13
2022-12-16T16:33:51.642Z,87.46
2022-12-16T16:36:38.028Z,86.95
2022-12-16T16:39:22.999Z,85.66
2022-12-16T16:42:08.118Z,87.24
2022-12-16T16:44:53.323Z,85.62
2022-12-16T16:47:38.755Z,85.81
2022-12-16T16:50:25.298Z,84.83
2022-12-16T16:53:12.036Z,83.65
2022-12-16T16:55:57.521Z,86.52
2022-12-16T16:58:45.396Z,86.88
2022-12-16T17:01:37.215Z,86.12
2022-12-16T17:04:25.886Z,88.13
2022-12-16T17:07:11.047Z,89.22
2022-12-16T17:09:56.313Z,86.54
2022-12-16T17:12:42.848Z,88.08
2022-12-16T17:15:43.895Z,89.55
2022-12-16T17:18:29.047Z,89.59
2022-12-16T17:21:14.169Z,90.36
2022-12-16T17:24:02.579Z,90.41
2022-12-16T17:26:48.433Z,91.14
2022-12-16T17:29:53.752Z,89.06
2022-12-16T17:32:44.122Z,89.48
2022-12-16T17:35:32.663Z,89.45
2022-12-16T17:38:17.946Z,87.98
2022-12-16T17:41:09.744Z,86.84
2022-12-16T17:43:57.163Z,86.55
2022-12-16T17:46:45.613Z,85.16
2022-12-16T17:49:30.995Z,87.16
2022-12-16T17:52:15.884Z,86.75
2022-12-16T17:55:02.668Z,85.42
2022-12-16T17:57:47.807Z,86.23
2022-12-16T18:00:33.607Z,85.03
2022-12-16T18:03:19.564Z,87.09
2022-12-16T18:06:06.766Z,85.30
2022-12-16T18:08:51.792Z,86.29
2022-12-16T18:11:38.852Z,84.89
2022-12-16T18:14:24.816Z,87.46
2022-12-16T18:17:10.108Z,86.26
2022-12-16T18:19:55.273Z,88.82
2022-12-16T18:22:40.594Z,86.02
2022-12-16T18:25:26.336Z,87.28
2022-12-16T18:28:11.485Z,86.31
2022-12-16T18:30:56.766Z,86.30
2022-12-16T18:33:42.047Z,86.66
2022-12-16T18:36:27.274Z,85.08
2022-12-16T18:39:12.692Z,85.64
2022-12-16T18:42:01.753Z,84.83
2022-12-16T18:44:47.530Z,84.70
2022-12-16T18:47:32.601Z,84.98
2022-12-16T18:50:20.101Z,85.80
2022-12-16T18:53:09.378Z,87.10
2022-12-16T18:55:54.894Z,86.21
2022-12-16T18:58:51.229Z,85.74
2022-12-16T19:01:37.861Z,89.01
2022-12-16T19:04:23.532Z,87.21
2022-12-16T19:07:09.052Z,89.33
2022-12-16T19:10:14.594Z,89.40
2022-12-16T19:13:06.007Z,89.53
2022-12-16T19:15:51.613Z,91.14
2022-12-16T19:18:37.438Z,90.43
2022-12-16T19:21:24.091Z,89.86
2022-12-16T19:24:15.993Z,88.86
2022-12-16T19:27:01.703Z,90.23
2022-12-16T19:29:46.909Z,88.00
2022-12-16T19:32:32.571Z,89.08
2022-12-16T19:35:17.931Z,88.78
2022-12-16T19:38:03.132Z,87.25
2022-12-16T19:40:58.770Z,88.34
2022-12-16T19:43:43.993Z,88.28
2022-12-16T19:46:29.234Z,86.66
2022-12-16T19:49:14.591Z,90.01
2022-12-16T19:52:00.044Z,92.33
2022-12-16T19:54:45.433Z,90.41
2022-12-16T19:57:30.607Z,89.61
2022-12-16T20:00:15.980Z,88.06
2022-12-16T20:03:01.264Z,88.64
2022-12-16T20:05:46.803Z,88.29
2022-12-16T20:08:33.159Z,90.39
2022-12-16T20:11:23.402Z,90.03
2022-12-16T20:14:10.987Z,88.71
2022-12-16T20:16:56.771Z,87.67
2022-12-16T20:19:42.097Z,86.87
2022-12-16T20:22:27.730Z,87.82
2022-12-16T20:25:12.922Z,89.23
2022-12-16T20:27:58.036Z,89.97
2022-12-16T20:30:43.848Z,88.99
2022-12-16T20:33:33.706Z,90.37
2022-12-16T20:36:20.486Z,91.47
2022-12-16T20:39:08.135Z,90.23
2022-12-16T20:44:59.429Z,89.81
2022-12-16T20:47:44.559Z,88.99
2022-12-16T20:50:43.476Z,90.15
2022-12-16T20:53:28.625Z,89.59
2022-12-16T20:56:14.058Z,89.52
2022-12-16T20:58:59.283Z,90.04
2022-12-16T21:02:01.289Z,89.78
2022-12-16T21:04:51.090Z,89.53
2022-12-16T21:07:36.890Z,88.95
2022-12-16T21:10:32.515Z,85.81
2022-12-16T21:13:24.473Z,86.33
2022-12-16T21:16:09.602Z,86.94
2022-12-16T21:18:57.239Z,88.66
2022-12-16T21:21:50.268Z,88.11
2022-12-16T21:24:35.475Z,88.35
2022-12-16T21:27:21.792Z,89.25
2022-12-16T21:30:07.009Z,88.41
2022-12-16T21:32:52.206Z,89.32
2022-12-16T21:35:38.921Z,89.71
2022-12-16T21:38:32.986Z,88.28
2022-12-16T21:41:18.225Z,86.08
2022-12-16T21:44:03.374Z,89.62
2022-12-16T21:46:48.741Z,89.84
2022-12-16T21:49:33.838Z,88.56
2022-12-16T21:52:18.980Z,86.79
2022-12-16T21:55:04.194Z,85.10
2022-12-16T21:57:49.496Z,84.17
2022-12-16T22:00:35.333Z,85.89
2022-12-16T22:03:20.409Z,85.51
2022-12-16T22:06:06.765Z,87.17
2022-12-16T22:08:52.032Z,87.05
2022-12-16T22:11:37.056Z,84.51
2022-12-16T22:14:22.177Z,86.08
2022-12-16T22:17:07.288Z,83.45
2022-12-16T22:19:56.221Z,85.09
2022-12-16T22:22:41.924Z,85.94
2022-12-16T22:25:30.104Z,86.84
2022-12-16T22:28:15.217Z,87.74
2022-12-16T22:31:00.579Z,88.82
2022-12-16T22:33:45.745Z,88.78
2022-12-16T22:36:32.507Z,87.78
2022-12-16T22:39:17.606Z,90.35
2022-12-16T22:42:02.650Z,90.91
2022-12-16T22:44:48.049Z,88.53
2022-12-16T22:47:33.370Z,87.27
2022-12-16T22:50:18.703Z,85.91
2022-12-16T22:53:04.390Z,87.49
2022-12-16T22:55:49.526Z,87.94
2022-12-16T22:58:41.111Z,87.15
2022-12-16T23:01:26.605Z,89.98
2022-12-16T23:04:12.375Z,88.90
2022-12-16T23:06:57.520Z,91.25
2022-12-16T23:09:42.792Z,92.07
2022-12-16T23:12:27.919Z,91.92
2022-12-16T23:15:13.968Z,91.24
2022-12-16T23:17:59.086Z,90.13
2022-12-16T23:20:46.495Z,89.24
2022-12-16T23:23:31.842Z,90.51
2022-12-16T23:26:17.959Z,91.24
2022-12-16T23:29:03.206Z,91.95
2022-12-16T23:31:48.326Z,90.89
2022-12-16T23:34:33.702Z,90.22
2022-12-16T23:37:18.737Z,91.46
2022-12-16T23:40:04.081Z,90.55
2022-12-16T23:42:49.174Z,90.13
2022-12-16T23:45:34.672Z,87.32
2022-12-16T23:48:24.548Z,89.35
2022-12-16T23:51:10.186Z,89.60
2022-12-16T23:53:56.527Z,89.50
2022-12-16T23:56:42.314Z,87.57
2022-12-16T23:59:27.703Z,88.60
